METAR Data

Data at: 1200 UTC 24 May 2022

METAR for:KCQX (Chatham Muni, MA, US)
Text:KCQX 241152Z AUTO 05008G18KT 10SM OVC100 13/07 A3031 RMK AO2 SLP265 60000 T01280067 10150 20128 50013
Temperature: 12.8°C ( 55°F)
Dewpoint: 6.7°C ( 44°F) [RH = 66%]
Pressure (altimeter):30.31 inches Hg (1026.5 mb) [Sea level pressure: 1026.5 mb]
Winds:from the NE (50 degrees) at 9 MPH (8 knots; 4.1 m/s) gusting to 21 MPH (18 knots; 9.3 m/s)
Visibility:10 or more sm (16+ km)
Ceiling:10000 feet AGL
Clouds: overcast cloud deck at 10000 feet AGL
QC Flag:automated observation with no human augmentation